Home > Products > Valid Products > TAF

000
FTUS42 KGSP 252335
TAFGSP
TAF
KGSP 252335Z 2600/2624 16005KT P6SM BKN060
     FM260600 18006KT P6SM VCTS OVC030CB
     FM261100 17005KT P6SM OVC009
     FM261500 18006KT P6SM VCSH BKN015 OVC030
     FM261700 19006KT P6SM VCTS BKN035CB PROB30 2619/2624 3SM TSRA
      OVC035CB=



000
FTUS42 KGSP 252335
TAFAVL
TAF
KAVL 252335Z 2600/2624 18007KT P6SM SCT060
     FM260300 17006KT P6SM VCSH SCT040 BKN060
     FM260700 17005KT 4SM BR VCSH OVC017
      TEMPO 2607/2611 2SM TSRA BR OVC013CB
     FM261300 17005KT P6SM VCSH OVC016
     FM261700 18007KT P6SM -SHRA OVC035 PROB30 2618/2624 3SM TSRA
      OVC025CB=



000
FTUS42 KGSP 252335
TAFCLT
TAF
KCLT 252335Z 2600/2624 18006KT P6SM BKN060
     FM260800 18007KT P6SM SCT017 OVC030
     FM261000 18005KT P6SM SCT007 OVC010
     FM261500 19006KT P6SM SCT013 OVC025
     FM261700 19006KT P6SM BKN045 PROB30 2621/2624 3SM TSRA
      BKN035CB=



000
FTUS42 KGSP 252335
TAFAVL
TAF
KAVL 252335Z 2600/2624 18007KT P6SM SCT060
     FM260300 17006KT P6SM VCSH SCT040 BKN060
     FM260700 17005KT 4SM BR VCSH OVC017
      TEMPO 2607/2611 2SM TSRA BR OVC013CB
     FM261300 17005KT P6SM VCSH OVC016
     FM261700 18007KT P6SM -SHRA OVC035 PROB30 2618/2624 3SM TSRA
      OVC025CB=



000
FTUS42 KGSP 252335
TAFGSP
TAF
KGSP 252335Z 2600/2624 16005KT P6SM BKN060
     FM260600 18006KT P6SM VCTS OVC030CB
     FM261100 17005KT P6SM OVC009
     FM261500 18006KT P6SM VCSH BKN015 OVC030
     FM261700 19006KT P6SM VCTS BKN035CB PROB30 2619/2624 3SM TSRA
      OVC035CB=



000
FTUS42 KGSP 252335
TAFCLT
TAF
KCLT 252335Z 2600/2624 18006KT P6SM BKN060
     FM260800 18007KT P6SM SCT017 OVC030
     FM261000 18005KT P6SM SCT007 OVC010
     FM261500 19006KT P6SM SCT013 OVC025
     FM261700 19006KT P6SM BKN045 PROB30 2621/2624 3SM TSRA
      BKN035CB=



000
FTUS42 KGSP 252335
TAFAVL
TAF
KAVL 252335Z 2600/2624 18007KT P6SM SCT060
     FM260300 17006KT P6SM VCSH SCT040 BKN060
     FM260700 17005KT 4SM BR VCSH OVC017
      TEMPO 2607/2611 2SM TSRA BR OVC013CB
     FM261300 17005KT P6SM VCSH OVC016
     FM261700 18007KT P6SM -SHRA OVC035 PROB30 2618/2624 3SM TSRA
      OVC025CB=



000
FTUS42 KGSP 252335
TAFCLT
TAF
KCLT 252335Z 2600/2624 18006KT P6SM BKN060
     FM260800 18007KT P6SM SCT017 OVC030
     FM261000 18005KT P6SM SCT007 OVC010
     FM261500 19006KT P6SM SCT013 OVC025
     FM261700 19006KT P6SM BKN045 PROB30 2621/2624 3SM TSRA
      BKN035CB=



000
FTUS42 KGSP 252335
TAFCLT
TAF
KCLT 252335Z 2600/2624 18006KT P6SM BKN060
     FM260800 18007KT P6SM SCT017 OVC030
     FM261000 18005KT P6SM SCT007 OVC010
     FM261500 19006KT P6SM SCT013 OVC025
     FM261700 19006KT P6SM BKN045 PROB30 2621/2624 3SM TSRA
      BKN035CB=



000
FTUS42 KGSP 252335
TAFAVL
TAF
KAVL 252335Z 2600/2624 18007KT P6SM SCT060
     FM260300 17006KT P6SM VCSH SCT040 BKN060
     FM260700 17005KT 4SM BR VCSH OVC017
      TEMPO 2607/2611 2SM TSRA BR OVC013CB
     FM261300 17005KT P6SM VCSH OVC016
     FM261700 18007KT P6SM -SHRA OVC035 PROB30 2618/2624 3SM TSRA
      OVC025CB=



000
FTUS42 KGSP 252057 AAA
TAFCLT
TAF AMD
KCLT 252057Z 2521/2618 20009KT P6SM BKN050
     FM260600 17007KT P6SM BKN015
     FM260900 17005KT P6SM OVC009
     FM261400 18006KT P6SM OVC015
     FM261600 19008KT P6SM BKN030=



000
FTUS42 KGSP 252057 AAA
TAFCLT
TAF AMD
KCLT 252057Z 2521/2618 20009KT P6SM BKN050
     FM260600 17007KT P6SM BKN015
     FM260900 17005KT P6SM OVC009
     FM261400 18006KT P6SM OVC015
     FM261600 19008KT P6SM BKN030=



000
FTUS42 KGSP 251733
TAFAVL
TAF
KAVL 251733Z 2518/2618 17010G16KT P6SM BKN045
     FM260100 17005KT P6SM VCSH OVC040
     FM260500 16006KT 5SM BR OVC025 PROB30 2605/2609 3SM TSRA BR
      OVC015CB
     FM260900 17005KT 3SM BR VCSH OVC008
     FM261400 17007KT P6SM VCSH OVC020=



000
FTUS42 KGSP 251733
TAFGSP
TAF
KGSP 251733Z 2518/2618 18007KT P6SM BKN045
     FM260300 15005KT P6SM VCSH OVC040 PROB30 2603/2606 4SM TSRA
      OVC035CB
     FM260600 16005KT P6SM VCSH OVC015
     FM260900 18005KT P6SM OVC009
     FM261400 18006KT P6SM BKN020=



000
FTUS42 KGSP 251733
TAFCLT
TAF
KCLT 251733Z 2518/2618 18009KT P6SM BKN050
     FM260600 17007KT P6SM BKN015
     FM260900 17005KT P6SM OVC009
     FM261400 18006KT P6SM OVC015
     FM261600 19008KT P6SM BKN030=



000
FTUS42 KGSP 251505 AAB
TAFAVL
TAF AMD
KAVL 251505Z 2515/2612 19009KT P6SM BKN035
     FM251700 17008KT P6SM BKN040
     FM252300 16005KT P6SM VCSH BKN050 PROB30 2600/2603 4SM TSRA
      BKN040CB
     FM260300 17004KT 3SM BR OVC015
     FM260600 17004KT 3SM BR OVC008=



000
FTUS42 KGSP 251505 AAB
TAFAVL
TAF AMD
KAVL 251505Z 2515/2612 19009KT P6SM BKN035
     FM251700 17008KT P6SM BKN040
     FM252300 16005KT P6SM VCSH BKN050 PROB30 2600/2603 4SM TSRA
      BKN040CB
     FM260300 17004KT 3SM BR OVC015
     FM260600 17004KT 3SM BR OVC008=



000
FTUS42 KGSP 251503 AAB
TAFGSP
TAF AMD
KGSP 251503Z 2515/2612 17006KT P6SM SCT025 BKN035
     FM251800 19006KT P6SM BKN045
     FM252100 18008KT P6SM VCSH BKN050
     FM260000 14005KT P6SM OVC025 PROB30 2600/2604 4SM TSRA OVC015CB
     FM260600 16006KT P6SM OVC008=



000
FTUS42 KGSP 251433 AAA
TAFCLT
TAF AMD
KCLT 251433Z 2515/2612 18008KT P6SM SCT030
     FM251700 18010KT P6SM SCT040 BKN250
     FM252300 16009KT P6SM BKN050
     FM260400 15008KT P6SM BKN015
     FM260600 16007KT P6SM BKN008=



000
FTUS42 KGSP 251433 AAA
TAFCLT
TAF AMD
KCLT 251433Z 2515/2612 18008KT P6SM SCT030
     FM251700 18010KT P6SM SCT040 BKN250
     FM252300 16009KT P6SM BKN050
     FM260400 15008KT P6SM BKN015
     FM260600 16007KT P6SM BKN008=



000
FTUS42 KGSP 251304 AAA
TAFAVL
TAF AMD
KAVL 251304Z 2513/2612 17007KT P6SM BKN035
     FM251700 17007KT P6SM BKN050
     FM252300 16005KT P6SM BKN060 PROB30 2523/2603 4SM TSRA BKN040CB
     FM260300 17004KT 3SM BR OVC015
     FM260600 17004KT 3SM BR OVC008=



000
FTUS42 KGSP 251304 AAA
TAFAVL
TAF AMD
KAVL 251304Z 2513/2612 17007KT P6SM BKN035
     FM251700 17007KT P6SM BKN050
     FM252300 16005KT P6SM BKN060 PROB30 2523/2603 4SM TSRA BKN040CB
     FM260300 17004KT 3SM BR OVC015
     FM260600 17004KT 3SM BR OVC008=



000
FTUS42 KGSP 251304 AAA
TAFAVL
TAF AMD
KAVL 251304Z 2513/2612 17007KT P6SM BKN035
     FM251700 17007KT P6SM BKN050
     FM252300 16005KT P6SM BKN060 PROB30 2523/2603 4SM TSRA BKN040CB
     FM260300 17004KT 3SM BR OVC015
     FM260600 17004KT 3SM BR OVC008=



000
FTUS42 KGSP 251304 AAA
TAFAVL
TAF AMD
KAVL 251304Z 2513/2612 17007KT P6SM BKN035
     FM251700 17007KT P6SM BKN050
     FM252300 16005KT P6SM BKN060 PROB30 2523/2603 4SM TSRA BKN040CB
     FM260300 17004KT 3SM BR OVC015
     FM260600 17004KT 3SM BR OVC008=



000
FTUS42 KGSP 251148 CCA
TAFAVL
TAF COR
KAVL 251148Z 2512/2612 16005KT P6SM SCT020 OVC040
      TEMPO 2512/2515 BKN020
     FM251800 17006KT P6SM BKN060
     FM252300 16005KT P6SM BKN060 PROB30 2523/2603 4SM TSRA BKN040CB
     FM260300 17004KT 3SM BR OVC015
     FM260600 17004KT 3SM BR OVC008=



000
FTUS42 KGSP 251148 CCA
TAFAVL
TAF COR
KAVL 251148Z 2512/2612 16005KT P6SM SCT020 OVC040
      TEMPO 2512/2515 BKN020
     FM251800 17006KT P6SM BKN060
     FM252300 16005KT P6SM BKN060 PROB30 2523/2603 4SM TSRA BKN040CB
     FM260300 17004KT 3SM BR OVC015
     FM260600 17004KT 3SM BR OVC008=



000
FTUS42 KGSP 251148 CCA
TAFAVL
TAF COR
KAVL 251148Z 2512/2612 16005KT P6SM SCT020 OVC040
      TEMPO 2512/2515 BKN020
     FM251800 17006KT P6SM BKN060
     FM252300 16005KT P6SM BKN060 PROB30 2523/2603 4SM TSRA BKN040CB
     FM260300 17004KT 3SM BR OVC015
     FM260600 17004KT 3SM BR OVC008=



000
FTUS42 KGSP 251148 CCA
TAFAVL
TAF COR
KAVL 251148Z 2512/2612 16005KT P6SM SCT020 OVC040
      TEMPO 2512/2515 BKN020
     FM251800 17006KT P6SM BKN060
     FM252300 16005KT P6SM BKN060 PROB30 2523/2603 4SM TSRA BKN040CB
     FM260300 17004KT 3SM BR OVC015
     FM260600 17004KT 3SM BR OVC008=



000
FTUS42 KGSP 251120
TAFAVL
TAF
KAVL 251120Z 2512/2612 16003KT P6SM OVC020
     FM251500 17005KT P6SM BKN025
     FM251800 17006KT P6SM BKN060
     FM252300 16005KT P6SM BKN060 PROB30 2523/2603 4SM TSRA BKN040CB
     FM260300 17004KT 3SM BR OVC015
     FM260600 17004KT 3SM BR OVC008=



000
FTUS42 KGSP 251120
TAFGSP
TAF
KGSP 251120Z 2512/2612 00000KT P6SM BKN016
     FM251500 17005KT P6SM BKN025
     FM251800 19006KT P6SM BKN060
     FM252100 18008KT P6SM BKN060 PROB30 2521/2603 4SM TSRA BKN040CB
     FM260300 14005KT P6SM OVC025 PROB30 2603/2606 4SM TSRA OVC015CB
     FM260600 16006KT P6SM OVC008=



000
FTUS42 KGSP 251120
TAFCLT
TAF
KCLT 251120Z 2512/2612 18004KT P6SM FEW060 BKN250
      TEMPO 2515/2517 SCT035
     FM251800 18008KT P6SM SCT060 BKN250
     FM252300 16008KT P6SM BKN060
     FM260400 15009KT P6SM BKN015
     FM260600 16009KT P6SM BKN008=



000
FTUS42 KGSP 251120
TAFAVL
TAF
KAVL 251120Z 2512/2612 16003KT P6SM OVC020
     FM251500 17005KT P6SM BKN025
     FM251800 17006KT P6SM BKN060
     FM252300 16005KT P6SM BKN060 PROB30 2523/2603 4SM TSRA BKN040CB
     FM260300 17004KT 3SM BR OVC015
     FM260600 17004KT 3SM BR OVC008=



000
FTUS42 KGSP 251024 AAC
TAFGSP
TAF AMD
KGSP 251024Z 2510/2606 00000KT P6SM BKN015
     FM251500 18004KT P6SM BKN025
     FM251700 19006KT P6SM BKN060
     FM252100 18008KT P6SM BKN060 PROB30 2521/2524 4SM TSRA BKN040CB
     FM260000 15004KT P6SM OVC050 PROB30 2600/2603 4SM TSRA OVC040CB
     FM260500 15005KT P6SM OVC020=



000
FTUS42 KGSP 251024 AAC
TAFGSP
TAF AMD
KGSP 251024Z 2510/2606 00000KT P6SM BKN015
     FM251500 18004KT P6SM BKN025
     FM251700 19006KT P6SM BKN060
     FM252100 18008KT P6SM BKN060 PROB30 2521/2524 4SM TSRA BKN040CB
     FM260000 15004KT P6SM OVC050 PROB30 2600/2603 4SM TSRA OVC040CB
     FM260500 15005KT P6SM OVC020=



000
FTUS42 KGSP 251000 AAB
TAFAVL
TAF AMD
KAVL 251000Z 2510/2606 15003KT P6SM OVC018
     FM251500 17005KT P6SM BKN025
     FM251700 17006KT P6SM BKN060
     FM252000 17007KT P6SM SCT060 PROB30 2520/2523 4SM TSRA BKN040CB
     FM252300 16005KT P6SM BKN060 PROB30 2523/2602 4SM TSRA BKN040CB
     FM260200 16004KT P6SM OVC050
     FM260400 17004KT 5SM BR OVC025=



000
FTUS42 KGSP 251000 AAB
TAFAVL
TAF AMD
KAVL 251000Z 2510/2606 15003KT P6SM OVC018
     FM251500 17005KT P6SM BKN025
     FM251700 17006KT P6SM BKN060
     FM252000 17007KT P6SM SCT060 PROB30 2520/2523 4SM TSRA BKN040CB
     FM252300 16005KT P6SM BKN060 PROB30 2523/2602 4SM TSRA BKN040CB
     FM260200 16004KT P6SM OVC050
     FM260400 17004KT 5SM BR OVC025=



000
FTUS42 KGSP 250857 AAA
TAFCLT
TAF AMD
KCLT 250857Z 2509/2606 17004KT P6SM FEW060 BKN250
     FM251700 19007KT P6SM SCT060
     FM252300 16008KT P6SM BKN060
     FM260400 15009KT P6SM BKN025=



000
FTUS42 KGSP 250857 AAA
TAFCLT
TAF AMD
KCLT 250857Z 2509/2606 17004KT P6SM FEW060 BKN250
     FM251700 19007KT P6SM SCT060
     FM252300 16008KT P6SM BKN060
     FM260400 15009KT P6SM BKN025=



000
FTUS42 KGSP 250857 AAA
TAFCLT
TAF AMD
KCLT 250857Z 2509/2606 17004KT P6SM FEW060 BKN250
     FM251700 19007KT P6SM SCT060
     FM252300 16008KT P6SM BKN060
     FM260400 15009KT P6SM BKN025=



000
FTUS42 KGSP 250857 AAA
TAFCLT
TAF AMD
KCLT 250857Z 2509/2606 17004KT P6SM FEW060 BKN250
     FM251700 19007KT P6SM SCT060
     FM252300 16008KT P6SM BKN060
     FM260400 15009KT P6SM BKN025=



000
FTUS42 KGSP 250827 AAA
TAFAVL
TAF AMD
KAVL 250827Z 2508/2606 15003KT P6SM SCT020 BKN040
      TEMPO 2508/2512 BKN020 OVC040
     FM251700 17006KT P6SM BKN060
     FM252000 17007KT P6SM SCT060 PROB30 2520/2523 4SM TSRA BKN040CB
     FM252300 16005KT P6SM BKN060 PROB30 2523/2602 4SM TSRA BKN040CB
     FM260200 16004KT P6SM OVC050
     FM260400 17004KT 5SM BR OVC025=



000
FTUS42 KGSP 250827 AAA
TAFAVL
TAF AMD
KAVL 250827Z 2508/2606 15003KT P6SM SCT020 BKN040
      TEMPO 2508/2512 BKN020 OVC040
     FM251700 17006KT P6SM BKN060
     FM252000 17007KT P6SM SCT060 PROB30 2520/2523 4SM TSRA BKN040CB
     FM252300 16005KT P6SM BKN060 PROB30 2523/2602 4SM TSRA BKN040CB
     FM260200 16004KT P6SM OVC050
     FM260400 17004KT 5SM BR OVC025=



000
FTUS42 KGSP 250827 AAA
TAFAVL
TAF AMD
KAVL 250827Z 2508/2606 15003KT P6SM SCT020 BKN040
      TEMPO 2508/2512 BKN020 OVC040
     FM251700 17006KT P6SM BKN060
     FM252000 17007KT P6SM SCT060 PROB30 2520/2523 4SM TSRA BKN040CB
     FM252300 16005KT P6SM BKN060 PROB30 2523/2602 4SM TSRA BKN040CB
     FM260200 16004KT P6SM OVC050
     FM260400 17004KT 5SM BR OVC025=



000
FTUS42 KGSP 250532
TAFCLT
TAF
KCLT 250532Z 2506/2606 16007KT P6SM FEW060 BKN250
     FM251700 19007KT P6SM SCT060
     FM252300 16008KT P6SM BKN060
     FM260400 15009KT P6SM BKN025=



000
FTUS42 KGSP 250532
TAFGSP
TAF
KGSP 250532Z 2506/2606 16005KT P6SM FEW060 BKN250
     FM251000 16004KT P6SM BKN050
     FM251700 19006KT P6SM BKN060
     FM252100 18008KT P6SM BKN060 PROB30 2521/2524 4SM TSRA BKN040CB
     FM260000 15004KT P6SM OVC050 PROB30 2600/2603 4SM TSRA OVC040CB
     FM260500 15005KT P6SM OVC020=



000
FTUS42 KGSP 250532
TAFAVL
TAF
KAVL 250532Z 2506/2606 15003KT P6SM SCT060 BKN250
     FM251700 17006KT P6SM BKN060
     FM252000 17007KT P6SM SCT060 PROB30 2520/2523 4SM TSRA BKN040CB
     FM252300 16005KT P6SM BKN060 PROB30 2523/2602 4SM TSRA BKN040CB
     FM260200 16004KT P6SM OVC050
     FM260400 17004KT 5SM BR OVC025=



000
FTUS42 KGSP 242329
TAFCLT
TAF
KCLT 242329Z 2500/2524 16007KT P6SM FEW070
     FM251000 16004KT P6SM SCT040
     FM251200 18004KT P6SM BKN035
     FM251700 16007KT P6SM BKN050=



000
FTUS42 KGSP 242329
TAFCLT
TAF
KCLT 242329Z 2500/2524 16007KT P6SM FEW070
     FM251000 16004KT P6SM SCT040
     FM251200 18004KT P6SM BKN035
     FM251700 16007KT P6SM BKN050=



000
FTUS42 KGSP 242329
TAFGSP
TAF
KGSP 242329Z 2500/2524 13006KT P6SM FEW060
     FM250500 15004KT P6SM SCT040
     FM251000 07003KT P6SM SCT017 BKN030
     FM251300 13003KT P6SM BKN017 OVC030
     FM251700 19007KT P6SM SCT040 BKN045 PROB30 2521/2524 4SM TSRA
      BKN030CB=



000
FTUS42 KGSP 242329
TAFAVL
TAF
KAVL 242329Z 2500/2524 15007KT P6SM SKC
     FM250400 17007KT P6SM SCT040
     FM251000 18005KT P6SM BKN025 OVC035
     FM251500 18005KT P6SM BKN040
     FM252000 18006KT P6SM BKN050 PROB30 2521/2524 4SM TSRA
      BKN030CB=



000
FTUS42 KGSP 242329
TAFAVL
TAF
KAVL 242329Z 2500/2524 15007KT P6SM SKC
     FM250400 17007KT P6SM SCT040
     FM251000 18005KT P6SM BKN025 OVC035
     FM251500 18005KT P6SM BKN040
     FM252000 18006KT P6SM BKN050 PROB30 2521/2524 4SM TSRA
      BKN030CB=



000
FTUS42 KGSP 242057 AAA
TAFCLT
TAF AMD
KCLT 242057Z 2421/2518 16007KT P6SM SCT060 SCT250
     FM250200 15005KT P6SM SCT250
     FM251200 16004KT P6SM SCT120 BKN250
     FM251500 18006KT P6SM BKN050=



000
FTUS42 KGSP 242057 AAA
TAFCLT
TAF AMD
KCLT 242057Z 2421/2518 16007KT P6SM SCT060 SCT250
     FM250200 15005KT P6SM SCT250
     FM251200 16004KT P6SM SCT120 BKN250
     FM251500 18006KT P6SM BKN050=



000
FTUS42 KGSP 241735
TAFCLT
TAF
KCLT 241735Z 2418/2518 16007KT P6SM SCT050 BKN250
     FM250200 15005KT P6SM SCT250
     FM251200 16004KT P6SM SCT120 BKN250
     FM251500 18006KT P6SM BKN050=



000
FTUS42 KGSP 241735
TAFGSP
TAF
KGSP 241735Z 2418/2518 13007KT P6SM FEW050 SCT250
     FM250300 11004KT P6SM SCT250
     FM250800 00000KT P6SM BKN050
     FM251000 08004KT P6SM BKN025
     FM251200 12006KT P6SM BKN015=



000
FTUS42 KGSP 241735
TAFAVL
TAF
KAVL 241735Z 2418/2518 18009G15KT P6SM FEW040 SCT250
     FM250300 15003KT P6SM SCT250
     FM250600 17004KT P6SM SCT050
     FM250800 17003KT P6SM BKN025
     FM251500 17006KT P6SM BKN025=



000
FTUS42 KGSP 241435 AAA
TAFCLT
TAF AMD
KCLT 241435Z 2415/2512 18006KT P6SM BKN250
     FM241700 17010G15KT P6SM FEW050 BKN250
     FM250000 15008KT P6SM FEW250=



000
FTUS42 KGSP 241435 AAA
TAFCLT
TAF AMD
KCLT 241435Z 2415/2512 18006KT P6SM BKN250
     FM241700 17010G15KT P6SM FEW050 BKN250
     FM250000 15008KT P6SM FEW250=



000
FTUS42 KGSP 241126
TAFAVL
TAF
KAVL 241126Z 2412/2512 14003KT P6SM FEW250
     FM241600 17007KT P6SM FEW250
     FM250600 16005KT P6SM SCT050
     FM250800 16005KT P6SM BKN020
     FM250900 17005KT P6SM BKN015=



000
FTUS42 KGSP 241126
TAFCLT
TAF
KCLT 241126Z 2412/2512 16004KT P6SM FEW250
     FM241700 16009G15KT P6SM FEW050 SCT250
     FM250000 15008KT P6SM FEW250=



000
FTUS42 KGSP 241126
TAFAVL
TAF
KAVL 241126Z 2412/2512 14003KT P6SM FEW250
     FM241600 17007KT P6SM FEW250
     FM250600 16005KT P6SM SCT050
     FM250800 16005KT P6SM BKN020
     FM250900 17005KT P6SM BKN015=



000
FTUS42 KGSP 241126
TAFGSP
TAF
KGSP 241126Z 2412/2512 12006KT P6SM FEW250
     FM241700 14010KT P6SM FEW060
     FM250200 11005KT P6SM FEW250
     FM250800 08004KT P6SM BKN020
     FM250900 08003KT P6SM BKN015
     FM251000 07003KT P6SM BKN008=



000
FTUS42 KGSP 241126
TAFCLT
TAF
KCLT 241126Z 2412/2512 16004KT P6SM FEW250
     FM241700 16009G15KT P6SM FEW050 SCT250
     FM250000 15008KT P6SM FEW250=



000
FTUS42 KGSP 241126
TAFAVL
TAF
KAVL 241126Z 2412/2512 14003KT P6SM FEW250
     FM241600 17007KT P6SM FEW250
     FM250600 16005KT P6SM SCT050
     FM250800 16005KT P6SM BKN020
     FM250900 17005KT P6SM BKN015=



000
FTUS42 KGSP 241126
TAFCLT
TAF
KCLT 241126Z 2412/2512 16004KT P6SM FEW250
     FM241700 16009G15KT P6SM FEW050 SCT250
     FM250000 15008KT P6SM FEW250=



000
FTUS42 KGSP 241126
TAFCLT
TAF
KCLT 241126Z 2412/2512 16004KT P6SM FEW250
     FM241700 16009G15KT P6SM FEW050 SCT250
     FM250000 15008KT P6SM FEW250=



000
FTUS42 KGSP 241126
TAFGSP
TAF
KGSP 241126Z 2412/2512 12006KT P6SM FEW250
     FM241700 14010KT P6SM FEW060
     FM250200 11005KT P6SM FEW250
     FM250800 08004KT P6SM BKN020
     FM250900 08003KT P6SM BKN015
     FM251000 07003KT P6SM BKN008=



000
FTUS42 KGSP 241126
TAFAVL
TAF
KAVL 241126Z 2412/2512 14003KT P6SM FEW250
     FM241600 17007KT P6SM FEW250
     FM250600 16005KT P6SM SCT050
     FM250800 16005KT P6SM BKN020
     FM250900 17005KT P6SM BKN015=



000
FTUS42 KGSP 240902 AAA
TAFCLT
TAF AMD
KCLT 240902Z 2409/2506 16004KT P6SM FEW250
     FM241500 17009G15KT P6SM FEW035 FEW250
     FM242000 16010G17KT P6SM SCT050
     FM250000 15010KT P6SM FEW250=



000
FTUS42 KGSP 240902 AAA
TAFCLT
TAF AMD
KCLT 240902Z 2409/2506 16004KT P6SM FEW250
     FM241500 17009G15KT P6SM FEW035 FEW250
     FM242000 16010G17KT P6SM SCT050
     FM250000 15010KT P6SM FEW250=



000
FTUS42 KGSP 240902 AAA
TAFCLT
TAF AMD
KCLT 240902Z 2409/2506 16004KT P6SM FEW250
     FM241500 17009G15KT P6SM FEW035 FEW250
     FM242000 16010G17KT P6SM SCT050
     FM250000 15010KT P6SM FEW250=



000
FTUS42 KGSP 240902 AAA
TAFCLT
TAF AMD
KCLT 240902Z 2409/2506 16004KT P6SM FEW250
     FM241500 17009G15KT P6SM FEW035 FEW250
     FM242000 16010G17KT P6SM SCT050
     FM250000 15010KT P6SM FEW250=



000
FTUS42 KGSP 240538
TAFAVL
TAF
KAVL 240538Z 2406/2506 00000KT P6SM FEW250
     FM241600 12009KT P6SM FEW250
     FM250200 17003KT P6SM BKN250=



000
FTUS42 KGSP 240538
TAFCLT
TAF
KCLT 240538Z 2406/2506 16004KT P6SM FEW250
     FM241500 17009G15KT P6SM FEW035 FEW250
     FM242000 16010G17KT P6SM SCT050
     FM250000 15010KT P6SM FEW250=



000
FTUS42 KGSP 240538
TAFCLT
TAF
KCLT 240538Z 2406/2506 16004KT P6SM FEW250
     FM241500 17009G15KT P6SM FEW035 FEW250
     FM242000 16010G17KT P6SM SCT050
     FM250000 15010KT P6SM FEW250=



000
FTUS42 KGSP 240538
TAFAVL
TAF
KAVL 240538Z 2406/2506 00000KT P6SM FEW250
     FM241600 12009KT P6SM FEW250
     FM250200 17003KT P6SM BKN250=



000
FTUS42 KGSP 240538
TAFGSP
TAF
KGSP 240538Z 2406/2506 14003KT P6SM FEW250
     FM241600 13010KT P6SM FEW250
     FM250200 12004KT P6SM BKN250=



000
FTUS42 KGSP 232320
TAFGSP
TAF
KGSP 232320Z 2400/2424 12003KT P6SM SKC
     FM240700 00000KT P6SM SKC
     FM241600 13006KT P6SM FEW120=



000
FTUS42 KGSP 232320
TAFAVL
TAF
KAVL 232320Z 2400/2424 17006KT P6SM FEW070
     FM240300 00000KT P6SM FEW130
     FM241500 16007KT P6SM FEW040=



000
FTUS42 KGSP 232320
TAFGSP
TAF
KGSP 232320Z 2400/2424 12003KT P6SM SKC
     FM240700 00000KT P6SM SKC
     FM241600 13006KT P6SM FEW120=



000
FTUS42 KGSP 232320
TAFCLT
TAF
KCLT 232320Z 2400/2424 14006KT P6SM FEW250
     FM240200 00000KT P6SM FEW200
     FM241500 15006KT P6SM FEW035 FEW250
     FM242000 16009KT P6SM SCT050=



000
FTUS42 KGSP 232320
TAFAVL
TAF
KAVL 232320Z 2400/2424 17006KT P6SM FEW070
     FM240300 00000KT P6SM FEW130
     FM241500 16007KT P6SM FEW040=



000
FTUS42 KGSP 232320
TAFAVL
TAF
KAVL 232320Z 2400/2424 17006KT P6SM FEW070
     FM240300 00000KT P6SM FEW130
     FM241500 16007KT P6SM FEW040=



000
FTUS42 KGSP 232320
TAFAVL
TAF
KAVL 232320Z 2400/2424 17006KT P6SM FEW070
     FM240300 00000KT P6SM FEW130
     FM241500 16007KT P6SM FEW040=



000
FTUS42 KGSP 232320
TAFCLT
TAF
KCLT 232320Z 2400/2424 14006KT P6SM FEW250
     FM240200 00000KT P6SM FEW200
     FM241500 15006KT P6SM FEW035 FEW250
     FM242000 16009KT P6SM SCT050=



000
FTUS42 KGSP 232320
TAFCLT
TAF
KCLT 232320Z 2400/2424 14006KT P6SM FEW250
     FM240200 00000KT P6SM FEW200
     FM241500 15006KT P6SM FEW035 FEW250
     FM242000 16009KT P6SM SCT050=



000
FTUS42 KGSP 232320
TAFCLT
TAF
KCLT 232320Z 2400/2424 14006KT P6SM FEW250
     FM240200 00000KT P6SM FEW200
     FM241500 15006KT P6SM FEW035 FEW250
     FM242000 16009KT P6SM SCT050=



000
FTUS42 KGSP 232048 AAA
TAFCLT
TAF AMD
KCLT 232048Z 2321/2418 14007KT P6SM FEW250
     FM240200 00000KT P6SM FEW250
     FM241600 16007KT P6SM FEW250=



000
FTUS42 KGSP 232048 AAA
TAFCLT
TAF AMD
KCLT 232048Z 2321/2418 14007KT P6SM FEW250
     FM240200 00000KT P6SM FEW250
     FM241600 16007KT P6SM FEW250=



000
FTUS42 KGSP 231723
TAFAVL
TAF
KAVL 231723Z 2318/2418 16009KT P6SM FEW040 FEW250
     FM240200 00000KT P6SM FEW250
     FM241600 16006KT P6SM FEW250=



000
FTUS42 KGSP 231723
TAFAVL
TAF
KAVL 231723Z 2318/2418 16009KT P6SM FEW040 FEW250
     FM240200 00000KT P6SM FEW250
     FM241600 16006KT P6SM FEW250=



000
FTUS42 KGSP 231723
TAFCLT
TAF
KCLT 231723Z 2318/2418 14008KT P6SM FEW250
     FM240200 00000KT P6SM FEW250
     FM241600 16007KT P6SM FEW250=



000
FTUS42 KGSP 231723
TAFGSP
TAF
KGSP 231723Z 2318/2418 10008KT P6SM SKC
     FM240400 00000KT P6SM FEW250
     FM241700 14006KT P6SM FEW250=



000
FTUS42 KGSP 231723
TAFCLT
TAF
KCLT 231723Z 2318/2418 14008KT P6SM FEW250
     FM240200 00000KT P6SM FEW250
     FM241600 16007KT P6SM FEW250=



000
FTUS42 KGSP 231723
TAFAVL
TAF
KAVL 231723Z 2318/2418 16009KT P6SM FEW040 FEW250
     FM240200 00000KT P6SM FEW250
     FM241600 16006KT P6SM FEW250=



000
FTUS42 KGSP 231723
TAFCLT
TAF
KCLT 231723Z 2318/2418 14008KT P6SM FEW250
     FM240200 00000KT P6SM FEW250
     FM241600 16007KT P6SM FEW250=



000
FTUS42 KGSP 231723
TAFGSP
TAF
KGSP 231723Z 2318/2418 10008KT P6SM SKC
     FM240400 00000KT P6SM FEW250
     FM241700 14006KT P6SM FEW250=



000
FTUS42 KGSP 231723
TAFAVL
TAF
KAVL 231723Z 2318/2418 16009KT P6SM FEW040 FEW250
     FM240200 00000KT P6SM FEW250
     FM241600 16006KT P6SM FEW250=



000
FTUS42 KGSP 231723
TAFCLT
TAF
KCLT 231723Z 2318/2418 14008KT P6SM FEW250
     FM240200 00000KT P6SM FEW250
     FM241600 16007KT P6SM FEW250=



000
FTUS42 KGSP 231421 AAA
TAFCLT
TAF AMD
KCLT 231421Z 2314/2412 07004KT P6SM FEW250
     FM231700 14006KT P6SM FEW250=



000
FTUS42 KGSP 231124
TAFCLT
TAF
KCLT 231124Z 2312/2412 03003KT P6SM FEW250
     FM231700 14006KT P6SM FEW250=



000
FTUS42 KGSP 231124
TAFAVL
TAF
KAVL 231124Z 2312/2412 00000KT P6SM FEW250
     FM231400 16006KT P6SM FEW250
     FM240200 00000KT P6SM FEW250=



000
FTUS42 KGSP 231124
TAFGSP
TAF
KGSP 231124Z 2312/2412 04003KT P6SM FEW250
     FM231700 12005KT P6SM SKC=



000
FTUS42 KGSP 231124
TAFAVL
TAF
KAVL 231124Z 2312/2412 00000KT P6SM FEW250
     FM231400 16006KT P6SM FEW250
     FM240200 00000KT P6SM FEW250=



000
FTUS42 KGSP 231124
TAFCLT
TAF
KCLT 231124Z 2312/2412 03003KT P6SM FEW250
     FM231700 14006KT P6SM FEW250=



000
FTUS42 KGSP 230857 AAA
TAFCLT
TAF AMD
KCLT 230857Z 2309/2406 04003KT P6SM FEW250
     FM231700 13006KT P6SM FEW250=



000
FTUS42 KGSP 230857 AAA
TAFCLT
TAF AMD
KCLT 230857Z 2309/2406 04003KT P6SM FEW250
     FM231700 13006KT P6SM FEW250=



000
FTUS42 KGSP 230857 AAA
TAFCLT
TAF AMD
KCLT 230857Z 2309/2406 04003KT P6SM FEW250
     FM231700 13006KT P6SM FEW250=



000
FTUS42 KGSP 230524
TAFCLT
TAF
KCLT 230524Z 2306/2406 00000KT P6SM FEW250
     FM231300 06004KT P6SM SCT250
     FM231900 12006KT P6SM FEW250=



000
FTUS42 KGSP 230524
TAFAVL
TAF
KAVL 230524Z 2306/2406 34003KT P6SM FEW250
     FM231400 13003KT P6SM FEW250
     FM232000 16007KT P6SM FEW250
     FM240200 00000KT P6SM FEW250=



000
FTUS42 KGSP 230524
TAFGSP
TAF
KGSP 230524Z 2306/2406 00000KT P6SM FEW250
     FM231300 06003KT P6SM SKC
     FM231800 11006KT P6SM SKC=



000
FTUS42 KGSP 230524
TAFAVL
TAF
KAVL 230524Z 2306/2406 34003KT P6SM FEW250
     FM231400 13003KT P6SM FEW250
     FM232000 16007KT P6SM FEW250
     FM240200 00000KT P6SM FEW250=



000
FTUS42 KGSP 230524
TAFAVL
TAF
KAVL 230524Z 2306/2406 34003KT P6SM FEW250
     FM231400 13003KT P6SM FEW250
     FM232000 16007KT P6SM FEW250
     FM240200 00000KT P6SM FEW250=



000
FTUS42 KGSP 230524
TAFCLT
TAF
KCLT 230524Z 2306/2406 00000KT P6SM FEW250
     FM231300 06004KT P6SM SCT250
     FM231900 12006KT P6SM FEW250=



000
FTUS42 KGSP 230524
TAFCLT
TAF
KCLT 230524Z 2306/2406 00000KT P6SM FEW250
     FM231300 06004KT P6SM SCT250
     FM231900 12006KT P6SM FEW250=



    US Dept of Commerce
    National Oceanic and Atmospheric Administration
    National Weather Service
    1325 East West Highway
    Silver Spring, MD 20910
    Page Author: NWS Internet Services Team
Disclaimer
Information Quality
Credits
Glossary
Privacy Policy
Freedom of Information Act (FOIA)
About Us
Career Opportunities